sensor_id;sensor_type;location;lat;lon;timestamp;temperature;humidity
73438;DHT22;66471;56.532;21.020;2024-03-25T07:13:01;3.60;99.90
73438;DHT22;66471;56.532;21.020;2024-03-25T07:15:27;4.10;99.90
73438;DHT22;66471;56.532;21.020;2024-03-25T07:17:54;4.20;99.90
73438;DHT22;66471;56.532;21.020;2024-03-25T07:20:20;4.00;99.90
73438;DHT22;66471;56.532;21.020;2024-03-25T07:22:48;4.10;99.90
73438;DHT22;66471;56.532;21.020;2024-03-25T07:25:15;4.00;99.90
73438;DHT22;66471;56.532;21.020;2024-03-25T07:27:44;4.20;99.90
73438;DHT22;66471;56.532;21.020;2024-03-25T07:30:10;4.20;99.90
73438;DHT22;66471;56.532;21.020;2024-03-25T07:32:36;4.10;99.90
73438;DHT22;66471;56.532;21.020;2024-03-25T07:35:04;4.10;99.90
73438;DHT22;66471;56.532;21.020;2024-03-25T07:37:31;4.10;99.90
73438;DHT22;66471;56.532;21.020;2024-03-25T07:39:58;4.10;99.90
73438;DHT22;66471;56.532;21.020;2024-03-25T07:42:24;4.10;99.90
73438;DHT22;66471;56.532;21.020;2024-03-25T07:44:51;4.10;99.90
73438;DHT22;66471;56.532;21.020;2024-03-25T07:47:17;4.30;99.90
73438;DHT22;66471;56.532;21.020;2024-03-25T07:49:43;4.20;99.90
73438;DHT22;66471;56.532;21.020;2024-03-25T07:52:11;4.20;99.90
73438;DHT22;66471;56.532;21.020;2024-03-25T07:54:40;4.60;99.90
73438;DHT22;66471;56.532;21.020;2024-03-25T07:57:09;4.50;99.90
73438;DHT22;66471;56.532;21.020;2024-03-25T07:59:35;4.40;99.90
73438;DHT22;66471;56.532;21.020;2024-03-25T08:02:02;4.80;99.90
73438;DHT22;66471;56.532;21.020;2024-03-25T08:04:28;4.60;99.90
73438;DHT22;66471;56.532;21.020;2024-03-25T08:06:55;4.70;99.90
73438;DHT22;66471;56.532;21.020;2024-03-25T08:09:21;4.90;99.90
73438;DHT22;66471;56.532;21.020;2024-03-25T08:11:47;4.60;99.90
73438;DHT22;66471;56.532;21.020;2024-03-25T08:14:13;4.90;99.90
73438;DHT22;66471;56.532;21.020;2024-03-25T08:16:40;4.90;99.90
73438;DHT22;66471;56.532;21.020;2024-03-25T08:19:06;4.80;99.90
73438;DHT22;66471;56.532;21.020;2024-03-25T08:21:32;4.90;99.90
73438;DHT22;66471;56.532;21.020;2024-03-25T08:23:58;5.00;99.90
73438;DHT22;66471;56.532;21.020;2024-03-25T08:26:24;4.90;99.90
73438;DHT22;66471;56.532;21.020;2024-03-25T08:28:51;5.00;99.90
73438;DHT22;66471;56.532;21.020;2024-03-25T08:31:17;5.20;99.90
73438;DHT22;66471;56.532;21.020;2024-03-25T08:33:43;5.20;99.90
73438;DHT22;66471;56.532;21.020;2024-03-25T08:36:09;5.10;99.90
73438;DHT22;66471;56.532;21.020;2024-03-25T08:38:35;5.10;99.90
73438;DHT22;66471;56.532;21.020;2024-03-25T08:41:01;5.20;99.90
73438;DHT22;66471;56.532;21.020;2024-03-25T08:43:27;5.30;99.90
73438;DHT22;66471;56.532;21.020;2024-03-25T08:45:53;5.50;99.90
73438;DHT22;66471;56.532;21.020;2024-03-25T08:48:19;5.80;99.90
73438;DHT22;66471;56.532;21.020;2024-03-25T08:50:45;5.50;99.90
73438;DHT22;66471;56.532;21.020;2024-03-25T08:53:11;5.50;99.90
73438;DHT22;66471;56.532;21.020;2024-03-25T08:55:37;5.90;99.90
73438;DHT22;66471;56.532;21.020;2024-03-25T08:58:03;6.30;99.90
73438;DHT22;66471;56.532;21.020;2024-03-25T09:00:29;6.40;99.90
73438;DHT22;66471;56.532;21.020;2024-03-25T09:02:55;6.40;99.90
73438;DHT22;66471;56.532;21.020;2024-03-25T09:05:22;6.40;99.90
73438;DHT22;66471;56.532;21.020;2024-03-25T09:07:51;6.70;99.90
73438;DHT22;66471;56.532;21.020;2024-03-25T09:10:18;7.10;99.90
73438;DHT22;66471;56.532;21.020;2024-03-25T09:13:03;7.20;99.90
73438;DHT22;66471;56.532;21.020;2024-03-25T09:15:29;7.20;99.90
73438;DHT22;66471;56.532;21.020;2024-03-25T09:17:56;7.50;99.90
73438;DHT22;66471;56.532;21.020;2024-03-25T09:20:23;7.50;99.90
73438;DHT22;66471;56.532;21.020;2024-03-25T09:22:49;7.50;99.90
73438;DHT22;66471;56.532;21.020;2024-03-25T09:25:16;7.60;98.70
73438;DHT22;66471;56.532;21.020;2024-03-25T09:27:49;8.00;98.80
73438;DHT22;66471;56.532;21.020;2024-03-25T09:30:17;8.10;98.10
73438;DHT22;66471;56.532;21.020;2024-03-25T09:32:46;8.40;97.40
73438;DHT22;66471;56.532;21.020;2024-03-25T09:35:12;8.40;95.50
73438;DHT22;66471;56.532;21.020;2024-03-25T09:37:39;8.40;94.10
73438;DHT22;66471;56.532;21.020;2024-03-25T09:40:05;8.30;94.20
73438;DHT22;66471;56.532;21.020;2024-03-25T09:42:48;8.70;93.50
73438;DHT22;66471;56.532;21.020;2024-03-25T09:45:18;8.80;95.80
